Terminal Aerodrome Forecast
Issued by NWS

Home | Current Version | Previous Version | Text Only | Print | Product List | Glossary On
Versions: 1 2 3 4 5 6 7 8 9 10 11 12 13 14 15 16 17 18 19 20 21 22 23 24 25 26 27 28 29 30 31 32 33 34 35
000
FTUS41 KBOX 282330
TAFHYA
TAF
KHYA 282330Z 2900/2924 16006KT P6SM BKN250
     FM290900 11006KT P6SM BKN150
     FM291400 11007KT P6SM VCSH OVC040
     FM291600 10009KT 5SM -RA OVC012
     FM291900 09013G22KT 3SM RA BR OVC010
     FM292200 06011G20KT 5SM -SHRADZ BR OVC008=

USA.gov is the U.S. government's official web portal to all federal, state and local government web resources and services.